Time;durP1;ratioP1;P1;durP2;ratioP2;P2;SDS_P1;SDS_P2;PMS_P1;PMS_P2;Temp;Humidity;BMP_temperature;BMP_pressure;BME280_temperature;BME280_humidity;BME280_pressure;Samples;Min_cycle;Max_cycle;Signal;HPM_P1;HPM_P2
2023/09/13 00:01:33;;;;;;;0.30;0.30;;;28.80;54.60;;;29.48;40.12;94681.44;5077329;28;20589;-22
2023/09/13 00:04:01;;;;;;;0.30;0.30;;;28.80;54.60;;;29.47;39.61;94679.06;5076403;28;20199;-22
2023/09/13 00:06:29;;;;;;;0.30;0.30;;;28.80;54.60;;;29.48;40.05;94678.75;5077753;28;20546;-22
2023/09/13 00:08:56;;;;;;;0.30;0.30;;;28.80;54.50;;;29.44;39.41;94674.28;5077126;28;20271;-22
2023/09/13 00:11:23;;;;;;;0.30;0.30;;;28.80;54.30;;;29.40;39.39;94682.22;5077405;28;20221;-21
2023/09/13 00:13:50;;;;;;;0.30;0.30;;;28.80;54.10;;;29.34;39.24;94678.09;5076980;28;20675;-21
2023/09/13 00:16:17;;;;;;;0.20;0.20;;;28.80;54.20;;;29.28;39.41;94690.91;5076582;28;20511;-23
2023/09/13 00:18:44;;;;;;;0.30;0.30;;;28.70;54.30;;;29.29;40.04;94691.72;5077016;28;20212;-22
2023/09/13 00:21:11;;;;;;;0.30;0.30;;;28.60;54.40;;;29.27;39.95;94692.03;5077021;28;20184;-24
2023/09/13 00:23:38;;;;;;;0.30;0.30;;;28.60;54.50;;;29.25;39.66;94688.88;5076936;28;20209;-23
2023/09/13 00:26:06;;;;;;;0.20;0.20;;;28.60;54.40;;;29.22;40.09;94686.78;5077051;28;20678;-20
2023/09/13 00:28:33;;;;;;;0.28;0.28;;;28.60;54.30;;;29.16;40.12;94688.88;5076815;28;20205;-22
2023/09/13 00:31:00;;;;;;;0.20;0.20;;;28.50;54.20;;;29.13;39.57;94686.00;5076804;28;20198;-21
2023/09/13 00:33:29;;;;;;;0.20;0.20;;;28.50;54.40;;;29.08;39.52;94684.25;5076710;28;20187;-22
2023/09/13 00:35:57;;;;;;;0.30;0.30;;;28.50;54.40;;;29.03;40.17;94687.88;5075654;28;20208;-23
2023/09/13 00:38:24;;;;;;;0.30;0.30;;;28.40;54.40;;;28.98;39.71;94685.34;5076550;28;20543;-22
2023/09/13 00:40:52;;;;;;;0.30;0.30;;;28.40;54.60;;;28.94;39.81;94676.25;5076930;28;20213;-21
2023/09/13 00:43:19;;;;;;;0.30;0.30;;;28.30;55.90;;;28.89;39.79;94679.13;5076586;28;20187;-22
2023/09/13 00:45:48;;;;;;;0.30;0.30;;;28.20;54.60;;;28.84;40.14;94666.56;5076489;28;20195;-22
2023/09/13 00:48:17;;;;;;;0.30;0.30;;;28.20;54.70;;;28.83;40.38;94673.09;5075557;28;20300;-23
2023/09/13 00:50:46;;;;;;;0.30;0.30;;;28.20;54.90;;;28.81;40.04;94671.78;5076435;28;20216;-23
2023/09/13 00:53:22;;;;;;;0.20;0.20;;;28.20;56.30;;;28.83;40.18;94670.38;5076619;28;20196;-21
2023/09/13 00:55:50;;;;;;;0.20;0.20;;;28.20;55.00;;;28.81;40.57;94669.91;5076267;28;20200;-21
2023/09/13 00:58:20;;;;;;;0.30;0.30;;;28.20;55.20;;;28.83;40.25;94665.00;5075479;28;20229;-23
2023/09/13 01:00:53;;;;;;;0.30;0.30;;;28.20;55.00;;;28.82;40.25;94662.59;5075315;28;20260;-23
2023/09/13 01:03:22;;;;;;;0.30;0.30;;;28.20;55.10;;;28.82;39.99;94667.97;5075444;28;20176;-22
2023/09/13 01:05:54;;;;;;;0.30;0.30;;;28.20;55.20;;;28.83;40.24;94666.88;5075338;28;20199;-22
2023/09/13 01:08:21;;;;;;;0.30;0.30;;;28.20;55.30;;;28.86;40.67;94668.97;5076644;28;20583;-21
2023/09/13 01:10:49;;;;;;;0.30;0.30;;;28.20;55.20;;;28.84;40.32;94661.16;5075031;28;20208;-21
2023/09/13 01:13:16;;;;;;;0.30;0.30;;;28.20;55.00;;;28.81;40.16;94671.78;5075947;28;20241;-21
2023/09/13 01:16:14;;;;;;;0.20;0.20;;;28.20;55.10;;;28.78;40.51;94669.72;5075862;28;20185;-23
2023/09/13 01:19:41;;;;;;;0.28;0.28;;;28.20;55.00;;;28.74;40.97;94664.16;5058514;28;20218;-22
2023/09/13 01:22:31;;;;;;;0.30;0.30;;;28.10;55.10;;;28.75;40.46;94663.84;5075860;28;20214;-22
2023/09/13 01:25:20;;;;;;;0.35;0.35;;;28.20;55.30;;;28.78;40.91;94657.00;5075185;28;20189;-22
2023/09/13 01:28:33;;;;;;;0.30;0.30;;;28.20;56.60;;;28.75;40.37;94657.66;5076821;28;20178;-21
2023/09/13 01:31:05;;;;;;;0.30;0.30;;;28.20;55.30;;;28.79;40.35;94660.53;5075641;28;20250;-22
2023/09/13 01:33:32;;;;;;;0.25;0.25;;;28.20;55.40;;;28.78;41.02;94662.41;5076225;28;20183;-22
2023/09/13 01:36:00;;;;;;;0.20;0.20;;;28.20;55.40;;;28.81;41.02;94653.69;5091551;28;20203;-22
2023/09/13 01:38:28;;;;;;;0.30;0.30;;;28.20;55.50;;;28.83;40.35;94650.69;5075420;28;20301;-22
2023/09/13 01:41:12;;;;;;;0.20;0.20;;;28.20;55.10;;;28.79;40.76;94660.53;5075463;28;20212;-22
2023/09/13 01:43:41;;;;;;;0.28;0.28;;;28.20;55.30;;;28.79;41.03;94668.63;5075750;28;20215;-23
2023/09/13 01:46:12;;;;;;;0.30;0.30;;;28.20;55.30;;;28.78;40.41;94662.41;5057910;28;20203;-22
2023/09/13 01:48:40;;;;;;;0.30;0.30;;;28.20;55.40;;;28.79;40.61;94664.00;5074819;28;20194;-22
2023/09/13 01:51:09;;;;;;;0.30;0.30;;;28.20;55.40;;;28.82;40.74;94676.88;5075554;28;20204;-22
2023/09/13 01:53:46;;;;;;;0.25;0.25;;;28.20;55.40;;;28.82;40.63;94666.09;5074309;28;20218;-24
2023/09/13 01:56:13;;;;;;;0.30;0.30;;;28.20;55.40;;;28.83;41.11;94669.56;5074392;28;20278;-22
2023/09/13 01:58:40;;;;;;;0.22;0.22;;;28.20;55.50;;;28.83;40.86;94664.19;5091034;28;20306;-22
2023/09/13 02:01:09;;;;;;;0.30;0.30;;;28.20;55.40;;;28.84;40.71;94663.06;5075135;28;20226;-22
2023/09/13 02:03:36;;;;;;;0.28;0.28;;;28.20;55.40;;;28.84;40.53;94663.06;5074402;28;20630;-23
2023/09/13 02:06:03;;;;;;;0.30;0.30;;;28.20;55.40;;;28.85;40.48;94662.75;5075013;28;20623;-22
2023/09/13 02:08:30;;;;;;;0.25;0.25;;;28.20;55.40;;;28.84;40.90;94658.44;5074327;28;20246;-21
2023/09/13 02:10:57;;;;;;;0.30;0.30;;;28.20;55.30;;;28.83;41.15;94662.28;5075286;28;20193;-22
2023/09/13 02:13:25;;;;;;;0.30;0.30;;;28.30;55.50;;;28.84;40.58;94661.16;5075099;28;20296;-21
2023/09/13 02:15:52;;;;;;;0.20;0.20;;;28.30;55.50;;;28.82;40.50;94658.00;5074875;28;20212;-21
2023/09/13 02:18:19;;;;;;;0.30;0.30;;;28.30;55.00;;;28.81;40.55;94666.38;5074864;28;20224;-21
2023/09/13 02:20:46;;;;;;;0.30;0.30;;;28.30;55.20;;;28.78;40.68;94665.13;5074186;28;20220;-22
2023/09/13 02:23:13;;;;;;;0.22;0.22;;;28.30;54.80;;;28.74;40.22;94672.25;5074924;28;20228;-21
2023/09/13 02:25:44;;;;;;;0.25;0.25;;;28.20;54.90;;;28.66;40.78;94660.31;5075144;28;20283;-21
2023/09/13 02:28:13;;;;;;;0.30;0.30;;;28.20;55.00;;;28.63;40.33;94663.63;5074564;28;20267;-21
2023/09/13 02:30:40;;;;;;;0.30;0.30;;;28.20;55.10;;;28.58;40.92;94667.25;5075413;28;20186;-21
2023/09/13 02:33:10;;;;;;;0.20;0.20;;;28.10;55.10;;;28.56;40.65;94661.41;5073973;28;20190;-21
2023/09/13 02:35:37;;;;;;;0.30;0.30;;;28.10;55.40;;;28.55;40.86;94670.59;5074012;28;20217;-21
2023/09/13 02:38:04;;;;;;;0.40;0.40;;;28.10;55.60;;;28.57;40.69;94665.66;5074335;28;20197;-21
2023/09/13 02:40:31;;;;;;;0.30;0.30;;;28.00;55.50;;;28.59;41.04;94662.66;5074976;28;20218;-21
2023/09/13 02:42:58;;;;;;;0.20;0.20;;;28.00;55.70;;;28.57;40.59;94660.25;5073770;28;20204;-21
2023/09/13 02:45:27;;;;;;;0.30;0.30;;;28.00;55.50;;;28.53;40.71;94656.59;5074934;28;20193;-22
2023/09/13 02:47:54;;;;;;;0.30;0.30;;;28.00;55.40;;;28.50;41.11;94654.53;5074842;28;20192;-22
2023/09/13 02:50:21;;;;;;;0.20;0.20;;;28.00;55.40;;;28.50;41.20;94656.44;5075497;28;20515;-21
2023/09/13 02:52:48;;;;;;;0.30;0.30;;;28.00;56.60;;;28.49;41.07;94665.63;5057180;28;20211;-21
2023/09/13 02:55:15;;;;;;;0.20;0.20;;;28.00;55.60;;;28.49;41.06;94655.66;5073659;28;20210;-23
2023/09/13 02:57:42;;;;;;;0.32;0.32;;;28.00;55.70;;;28.52;40.83;94662.31;5074864;28;20201;-23
2023/09/13 03:00:11;;;;;;;0.30;0.30;;;27.90;55.80;;;28.52;40.85;94652.31;5073532;28;20215;-22
2023/09/13 03:02:41;;;;;;;0.30;0.30;;;28.00;55.80;;;28.53;41.46;94655.81;5073646;28;20184;-21
2023/09/13 03:05:08;;;;;;;0.30;0.30;;;28.00;55.90;;;28.55;41.07;94659.00;5073554;28;20288;-20
2023/09/13 03:07:35;;;;;;;0.30;0.30;;;28.00;55.90;;;28.56;41.37;94658.69;5073411;28;20202;-21
2023/09/13 03:10:03;;;;;;;0.30;0.30;;;28.00;55.80;;;28.58;41.24;94655.69;5074753;28;20270;-21
2023/09/13 03:12:30;;;;;;;0.30;0.30;;;28.00;55.80;;;28.58;40.98;94653.75;5073562;28;20233;-21
2023/09/13 03:14:57;;;;;;;0.28;0.28;;;28.00;55.80;;;28.59;40.95;94652.66;5073482;28;20199;-21
2023/09/13 03:17:24;;;;;;;0.30;0.30;;;28.00;55.80;;;28.58;41.42;94647.59;5073556;28;20567;-22
2023/09/13 03:19:52;;;;;;;0.22;0.22;;;28.00;55.70;;;28.61;41.29;94649.63;5056846;28;20570;-21
2023/09/13 03:22:19;;;;;;;0.20;0.20;;;28.10;55.80;;;28.60;41.40;94640.75;5074374;28;20274;-21
2023/09/13 03:24:47;;;;;;;0.30;0.30;;;28.10;55.70;;;28.63;41.46;94643.94;5074371;28;20515;-21
2023/09/13 03:27:15;;;;;;;0.30;0.30;;;28.10;55.70;;;28.62;40.79;94639.66;5073277;28;20264;-21
2023/09/13 03:29:42;;;;;;;0.30;0.30;;;28.10;55.50;;;28.59;41.00;94644.56;5073348;28;20622;-21
2023/09/13 03:32:11;;;;;;;0.20;0.20;;;28.10;55.60;;;28.62;41.22;94647.75;5073515;28;20204;-21
2023/09/13 03:34:38;;;;;;;0.30;0.30;;;28.10;55.60;;;28.60;40.73;94648.84;5074185;28;20324;-22
2023/09/13 03:37:06;;;;;;;0.30;0.30;;;28.10;55.60;;;28.58;41.01;94645.66;5073162;28;20396;-21
2023/09/13 03:39:34;;;;;;;0.20;0.20;;;28.10;55.50;;;28.60;41.10;94653.47;5075320;28;20711;-22
2023/09/13 03:42:02;;;;;;;0.30;0.30;;;28.10;55.60;;;28.58;40.98;94651.06;5076809;28;20292;-22
2023/09/13 03:44:30;;;;;;;0.32;0.32;;;28.00;55.60;;;28.59;41.02;94651.88;5076771;28;20220;-21
2023/09/13 03:46:57;;;;;;;0.40;0.40;;;28.10;55.80;;;28.62;41.28;94653.16;5060195;28;20298;-22
2023/09/13 03:49:24;;;;;;;0.30;0.30;;;28.10;55.70;;;28.58;41.29;94647.59;5076738;28;20233;-22
2023/09/13 03:51:52;;;;;;;0.30;0.30;;;28.10;55.50;;;28.54;40.74;94652.00;5076604;28;20203;-22
2023/09/13 03:54:20;;;;;;;0.20;0.20;;;28.10;55.30;;;28.48;40.65;94643.28;5076798;28;20208;-22
2023/09/13 03:56:47;;;;;;;0.30;0.30;;;28.10;55.50;;;28.44;40.84;94647.69;5076386;28;20207;-22
2023/09/13 03:59:14;;;;;;;0.30;0.30;;;28.00;55.30;;;28.37;40.68;94650.84;5077378;28;20210;-22
2023/09/13 04:01:41;;;;;;;0.30;0.30;;;28.00;55.30;;;28.32;41.07;94655.56;5076428;28;20662;-21
2023/09/13 04:04:08;;;;;;;0.20;0.20;;;28.00;55.30;;;28.26;41.21;94653.03;5077346;28;20279;-21
2023/09/13 04:06:35;;;;;;;0.30;0.30;;;27.90;55.50;;;28.25;41.11;94646.03;5076349;28;20263;-21
2023/09/13 04:09:03;;;;;;;0.30;0.30;;;27.80;55.60;;;28.25;41.02;94656.81;5077201;28;20285;-21
2023/09/13 04:11:30;;;;;;;0.30;0.30;;;27.80;55.80;;;28.26;41.50;94655.72;5076281;28;20214;-24
2023/09/13 04:13:57;;;;;;;0.28;0.28;;;27.80;55.90;;;28.25;41.64;94659.50;5077037;28;20250;-24
2023/09/13 04:16:24;;;;;;;0.20;0.20;;;27.80;55.90;;;28.27;41.58;94660.00;5076300;28;20259;-21
2023/09/13 04:18:51;;;;;;;0.22;0.22;;;27.80;56.00;;;28.27;41.49;94660.00;5076832;28;20212;-21
2023/09/13 04:21:18;;;;;;;0.40;0.40;;;27.80;56.00;;;28.32;41.46;94666.38;5092882;28;20704;-23
2023/09/13 04:23:45;;;;;;;0.25;0.25;;;27.80;56.00;;;28.31;41.52;94662.88;5076552;28;20197;-22
2023/09/13 04:26:15;;;;;;;0.30;0.30;;;27.80;56.00;;;28.34;41.18;94670.34;5077203;28;20200;-22
2023/09/13 04:28:42;;;;;;;0.20;0.20;;;27.80;56.10;;;28.34;41.23;94672.25;5076496;28;20196;-21
2023/09/13 04:31:09;;;;;;;0.30;0.30;;;27.80;56.00;;;28.35;41.81;94676.53;5092772;28;20237;-22
2023/09/13 04:33:53;;;;;;;0.20;0.20;;;27.80;57.40;;;28.35;41.56;94671.94;5092612;28;20268;-22
2023/09/13 04:36:29;;;;;;;0.30;0.30;;;27.80;56.00;;;28.38;41.74;94671.31;5060398;28;20180;-22
2023/09/13 04:38:57;;;;;;;0.30;0.30;;;27.90;56.00;;;28.36;41.32;94673.53;5075511;28;20249;-22
2023/09/13 04:41:25;;;;;;;0.30;0.30;;;27.90;56.00;;;28.36;41.50;94670.03;5059150;28;20200;-22
2023/09/13 04:43:52;;;;;;;0.30;0.30;;;27.90;56.00;;;28.37;41.49;94671.63;5092514;28;20278;-22
2023/09/13 04:46:19;;;;;;;0.20;0.20;;;27.90;56.10;;;28.39;41.46;94677.50;5075556;28;20202;-22
2023/09/13 04:48:47;;;;;;;0.30;0.30;;;27.90;56.00;;;28.38;41.54;94681.31;5075419;28;20265;-22
2023/09/13 04:51:14;;;;;;;0.30;0.30;;;27.90;56.00;;;28.37;41.67;94680.53;5075038;28;20190;-23
2023/09/13 04:53:42;;;;;;;0.30;0.30;;;27.90;57.40;;;28.38;41.25;94682.13;5075457;28;20215;-22
2023/09/13 04:56:09;;;;;;;0.30;0.30;;;27.90;56.00;;;28.38;41.30;94681.31;5075372;28;20204;-22
2023/09/13 04:58:41;;;;;;;0.20;0.20;;;27.90;56.10;;;28.39;41.22;94685.59;5075161;28;20190;-22
2023/09/13 05:01:09;;;;;;;0.30;0.30;;;27.90;55.90;;;28.36;41.00;94688.94;5075248;28;20232;-22
2023/09/13 05:03:36;;;;;;;0.30;0.30;;;27.90;55.90;;;28.34;41.22;94683.81;5092110;28;20187;-22
2023/09/13 05:06:03;;;;;;;0.20;0.20;;;27.90;56.00;;;28.35;41.57;94692.72;5076147;28;20273;-23
2023/09/13 05:08:34;;;;;;;0.30;0.30;;;27.90;55.80;;;28.32;41.77;94694.16;5076669;28;20180;-23
2023/09/13 05:11:02;;;;;;;0.28;0.28;;;27.90;55.90;;;28.30;41.30;94682.06;5076074;28;20218;-22
2023/09/13 05:13:31;;;;;;;0.32;0.32;;;27.90;56.00;;;28.31;41.61;94686.34;5075792;28;20259;-22
2023/09/13 05:15:58;;;;;;;0.22;0.22;;;27.90;56.00;;;28.31;41.68;94687.16;5075350;28;20195;-22
2023/09/13 05:18:25;;;;;;;0.30;0.30;;;27.90;56.20;;;28.33;42.00;94686.84;5074922;28;20192;-22
2023/09/13 05:20:52;;;;;;;0.35;0.35;;;27.80;56.10;;;28.33;41.75;94681.44;5074917;28;20214;-22
2023/09/13 05:23:19;;;;;;;0.30;0.30;;;27.90;56.20;;;28.33;41.88;94687.66;5076031;28;20194;-22
2023/09/13 05:25:48;;;;;;;0.38;0.38;;;27.90;56.20;;;28.35;41.94;94681.94;5074805;28;20221;-22
2023/09/13 05:28:16;;;;;;;0.30;0.30;;;27.90;56.10;;;28.33;41.45;94687.66;5075030;28;20204;-22
2023/09/13 05:30:48;;;;;;;0.30;0.30;;;27.90;56.10;;;28.36;41.96;94691.63;5058273;28;20213;-22
2023/09/13 05:33:16;;;;;;;0.30;0.30;;;27.90;56.10;;;28.34;41.57;94683.03;5075978;28;20191;-22
2023/09/13 05:35:43;;;;;;;0.30;0.30;;;28.00;56.20;;;28.36;41.53;94686.22;5076009;28;20518;-22
2023/09/13 05:38:10;;;;;;;0.30;0.30;;;27.90;56.20;;;28.37;41.89;94685.09;5075791;28;20256;-22
2023/09/13 05:40:37;;;;;;;0.30;0.30;;;28.00;56.20;;;28.37;41.98;94688.59;5075694;28;20209;-22
2023/09/13 05:43:04;;;;;;;0.30;0.30;;;28.00;56.20;;;28.36;42.00;94691.63;5075455;28;20216;-22
2023/09/13 05:45:31;;;;;;;0.30;0.30;;;28.00;56.20;;;28.36;41.73;94688.94;5074497;28;20201;-22
2023/09/13 05:47:59;;;;;;;0.30;0.30;;;28.00;56.20;;;28.40;41.90;94695.28;5075239;28;20195;-22
2023/09/13 05:50:26;;;;;;;0.30;0.30;;;28.00;56.30;;;28.38;42.04;94703.69;5058732;28;20214;-22
2023/09/13 05:52:54;;;;;;;0.30;0.30;;;28.00;56.20;;;28.41;41.57;94702.28;5075292;28;20190;-22
2023/09/13 05:55:22;;;;;;;0.20;0.20;;;28.00;56.20;;;28.42;41.80;94698.47;5075518;28;20192;-21
2023/09/13 05:57:52;;;;;;;0.40;0.40;;;28.00;56.10;;;28.40;42.15;94700.69;5075526;28;20711;-22
2023/09/13 06:00:19;;;;;;;0.30;0.30;;;28.00;56.20;;;28.42;42.15;94703.88;5074611;28;20216;-22
2023/09/13 06:02:46;;;;;;;0.30;0.30;;;28.10;56.30;;;28.42;42.03;94703.88;5074457;28;20263;-22
2023/09/13 06:05:13;;;;;;;0.20;0.20;;;28.00;56.20;;;28.40;41.52;94712.25;5075153;28;20638;-24
2023/09/13 06:07:42;;;;;;;0.30;0.30;;;28.10;56.20;;;28.42;41.50;94710.03;5074985;28;20191;-22
2023/09/13 06:10:11;;;;;;;0.25;0.25;;;28.00;56.10;;;28.42;42.14;94715.44;5075027;28;20210;-22
2023/09/13 06:12:38;;;;;;;0.30;0.30;;;28.00;56.10;;;28.42;41.72;94720.84;5075047;28;20318;-22
2023/09/13 06:15:06;;;;;;;0.30;0.30;;;28.00;56.20;;;28.41;41.68;94713.84;5075032;28;20271;-22
2023/09/13 06:17:36;;;;;;;0.25;0.25;;;28.00;56.20;;;28.41;41.82;94716.53;5075138;28;20248;-22
2023/09/13 06:20:05;;;;;;;0.30;0.30;;;28.00;56.20;;;28.41;41.63;94719.25;5074240;28;20308;-22
2023/09/13 06:22:32;;;;;;;0.30;0.30;;;28.00;56.30;;;28.43;42.13;94717.03;5074956;28;20187;-22
2023/09/13 06:25:00;;;;;;;0.30;0.30;;;28.00;56.20;;;28.42;41.99;94718.13;5075145;28;20290;-22
2023/09/13 06:27:31;;;;;;;0.20;0.20;;;28.10;56.40;;;28.39;41.65;94721.47;5075011;28;20183;-22
2023/09/13 06:29:58;;;;;;;0.30;0.30;;;28.00;56.20;;;28.41;41.99;94715.75;5074019;28;20370;-23
2023/09/13 06:32:26;;;;;;;0.30;0.30;;;28.00;56.20;;;28.41;41.55;94719.25;5074841;28;20288;-21
2023/09/13 06:35:13;;;;;;;0.30;0.30;;;28.10;56.30;;;28.42;42.21;94728.94;5075153;28;20266;-22
2023/09/13 06:37:44;;;;;;;0.30;0.30;;;28.10;56.30;;;28.42;41.98;94728.94;5075206;28;20188;-22
2023/09/13 06:40:14;;;;;;;0.30;0.30;;;28.10;56.30;;;28.43;42.13;94727.81;5074740;28;20210;-22
2023/09/13 06:42:42;;;;;;;0.28;0.28;;;28.10;56.20;;;28.43;42.25;94727.03;5074734;28;20200;-22
2023/09/13 06:45:27;;;;;;;0.30;0.30;;;28.10;56.20;;;28.44;41.81;94729.44;5074608;28;20271;-22
2023/09/13 06:47:56;;;;;;;0.30;0.30;;;28.10;56.20;;;28.43;41.80;94732.44;5074807;28;20294;-23
2023/09/13 06:50:25;;;;;;;0.30;0.30;;;28.10;56.30;;;28.42;42.28;94734.31;5074691;28;20188;-22
2023/09/13 06:53:12;;;;;;;0.30;0.30;;;28.10;56.20;;;28.43;42.10;94732.44;5074669;28;20197;-21
2023/09/13 06:55:42;;;;;;;0.20;0.20;;;28.10;56.10;;;28.43;42.32;94743.22;5073755;28;20281;-22
2023/09/13 06:58:13;;;;;;;0.30;0.30;;;28.10;56.10;;;28.43;41.89;94744.00;5074501;28;20619;-22
2023/09/13 07:00:44;;;;;;;0.20;0.20;;;28.10;56.10;;;28.42;41.76;94745.13;5074539;28;20197;-22
2023/09/13 07:03:31;;;;;;;0.30;0.30;;;28.10;56.10;;;28.41;42.17;94751.63;5074805;28;20178;-22
2023/09/13 07:06:16;;;;;;;0.28;0.28;;;28.10;56.10;;;28.42;42.24;94750.50;5074919;28;20194;-21
2023/09/13 07:08:43;;;;;;;0.30;0.30;;;28.10;56.10;;;28.42;42.19;94750.50;5074838;28;20214;-32
2023/09/13 07:11:10;;;;;;;0.20;0.20;;;28.10;56.10;;;28.44;41.69;94755.59;5074810;28;20574;-21
2023/09/13 07:13:37;;;;;;;0.30;0.30;;;28.10;56.20;;;28.46;41.80;94753.38;5075679;28;20761;-22
2023/09/13 07:16:04;;;;;;;0.20;0.20;;;28.10;56.20;;;28.46;41.63;94763.41;5078409;28;20288;-22
2023/09/13 07:18:32;;;;;;;0.30;0.30;;;28.10;57.60;;;28.46;41.61;94758.78;5077476;28;20202;-21
2023/09/13 07:20:59;;;;;;;0.30;0.30;;;28.10;56.20;;;28.50;41.66;94761.66;5078164;28;20253;-23
2023/09/13 07:23:27;;;;;;;0.30;0.30;;;28.10;56.20;;;28.51;42.17;94760.56;5077391;28;20205;-21
2023/09/13 07:25:54;;;;;;;0.30;0.30;;;28.10;56.20;;;28.51;41.68;94755.94;5078219;28;20191;-22
2023/09/13 07:28:22;;;;;;;0.30;0.30;;;28.20;56.40;;;28.54;41.53;94762.63;5078323;28;20280;-22
2023/09/13 07:30:49;;;;;;;0.20;0.20;;;28.10;56.20;;;28.53;42.51;94755.66;5078331;28;20198;-22
2023/09/13 07:33:16;;;;;;;0.30;0.30;;;28.10;56.20;;;28.55;42.04;94764.22;5078159;28;20195;-22
2023/09/13 07:35:44;;;;;;;0.20;0.20;;;28.10;56.20;;;28.56;42.08;94766.63;5078019;28;20218;-21
2023/09/13 07:38:12;;;;;;;0.25;0.25;;;28.20;56.30;;;28.57;42.05;94770.09;5078175;28;20699;-22
2023/09/13 07:40:39;;;;;;;0.30;0.30;;;28.20;56.40;;;28.58;41.58;94769.78;5076770;28;20291;-21
2023/09/13 07:43:07;;;;;;;0.30;0.30;;;28.20;56.30;;;28.56;41.89;94772.03;5077136;28;20196;-22
2023/09/13 07:45:34;;;;;;;0.30;0.30;;;28.20;56.40;;;28.59;41.69;94776.00;5077994;28;20270;-21
2023/09/13 07:48:05;;;;;;;0.20;0.20;;;28.20;57.60;;;28.63;41.71;94778.88;5077766;28;20194;-23
2023/09/13 07:50:38;;;;;;;0.30;0.30;;;28.20;56.30;;;28.62;42.37;94772.66;5077230;28;20191;-24
2023/09/13 07:53:06;;;;;;;0.30;0.30;;;28.30;56.40;;;28.61;41.81;94765.66;5078132;28;20223;-21
2023/09/13 07:55:34;;;;;;;0.22;0.22;;;28.30;56.30;;;28.62;41.92;94769.97;5077943;28;20201;-22
2023/09/13 07:58:03;;;;;;;0.22;0.22;;;28.30;56.30;;;28.64;42.25;94767.75;5077102;28;20205;-22
2023/09/13 08:00:30;;;;;;;0.30;0.30;;;28.30;56.30;;;28.65;41.61;94768.53;5077592;28;20617;-22
2023/09/13 08:03:02;;;;;;;0.28;0.28;;;28.30;56.30;;;28.68;42.29;94771.44;5078331;28;20179;-24
2023/09/13 08:05:29;;;;;;;0.30;0.30;;;28.30;56.40;;;28.70;41.74;94766.53;5076467;28;20191;-33
2023/09/13 08:07:57;;;;;;;0.25;0.25;;;28.30;56.40;;;28.72;41.78;94764.34;5077629;28;20226;-21
2023/09/13 08:10:24;;;;;;;0.20;0.20;;;28.30;56.40;;;28.72;42.21;94764.34;5076470;28;20539;-22
2023/09/13 08:12:52;;;;;;;0.25;0.25;;;28.40;56.50;;;28.76;42.21;94769.91;5077171;28;20321;-22
2023/09/13 08:15:19;;;;;;;0.30;0.30;;;28.40;56.50;;;28.77;42.06;94774.19;5077343;28;20603;-21
2023/09/13 08:17:56;;;;;;;0.28;0.28;;;28.40;56.40;;;28.77;42.13;94770.69;5077933;28;20204;-22
2023/09/13 08:20:23;;;;;;;0.30;0.30;;;28.40;56.40;;;28.79;42.37;94776.59;5076157;28;20212;-22
2023/09/13 08:22:52;;;;;;;0.20;0.20;;;28.40;56.40;;;28.80;41.94;94778.97;5076166;28;20226;-22
2023/09/13 08:25:19;;;;;;;0.30;0.30;;;28.40;56.40;;;28.81;42.28;94775.16;5076557;28;20215;-23
2023/09/13 08:27:46;;;;;;;0.20;0.20;;;28.40;56.40;;;28.81;41.90;94777.88;5076678;28;20705;-22
2023/09/13 08:30:14;;;;;;;0.30;0.30;;;28.40;56.40;;;28.84;42.36;94779.94;5077196;28;20188;-23
2023/09/13 08:32:41;;;;;;;0.30;0.30;;;28.50;56.40;;;28.84;42.28;94763.72;5076154;28;20202;-24
2023/09/13 08:35:09;;;;;;;0.30;0.30;;;28.40;56.40;;;28.87;41.87;94778.53;5077012;28;20197;-22
2023/09/13 08:37:36;;;;;;;0.30;0.30;;;28.40;56.30;;;28.87;41.76;94770.44;5076971;28;20218;-21
2023/09/13 08:40:04;;;;;;;0.30;0.30;;;28.50;56.40;;;28.88;42.31;94780.91;5076520;28;20656;-22
2023/09/13 08:42:33;;;;;;;0.30;0.30;;;28.50;56.40;;;28.90;41.79;94773.28;5077047;28;20247;-22
2023/09/13 08:45:01;;;;;;;0.22;0.22;;;28.50;56.30;;;28.91;42.13;94777.56;5077012;28;20579;-22
2023/09/13 08:47:31;;;;;;;0.30;0.30;;;28.50;56.30;;;28.94;42.22;94778.84;5075737;28;20206;-22
2023/09/13 08:50:10;;;;;;;0.28;0.28;;;28.60;56.40;;;28.97;42.34;94780.94;5075813;28;20197;-21
2023/09/13 08:52:40;;;;;;;0.32;0.32;;;28.50;56.30;;;28.97;41.68;94782.84;5076209;28;20220;-21
2023/09/13 08:55:09;;;;;;;0.30;0.30;;;28.60;56.40;;;28.99;41.60;94786.84;5075656;28;20194;-22
2023/09/13 08:57:37;;;;;;;0.30;0.30;;;28.60;56.30;;;29.01;41.59;94786.50;5076457;28;20213;-21
2023/09/13 09:00:08;;;;;;;0.20;0.20;;;28.60;56.30;;;29.02;41.63;94788.91;5075551;28;20306;-22
2023/09/13 09:02:37;;;;;;;0.30;0.30;;;28.60;56.20;;;29.02;41.63;94791.59;5075628;28;20597;-23
2023/09/13 09:05:10;;;;;;;0.25;0.25;;;28.60;56.20;;;29.04;42.12;94785.88;5075471;28;20197;-22
2023/09/13 09:07:40;;;;;;;0.20;0.20;;;28.70;56.30;;;29.03;41.68;94793.19;5076827;28;20642;-22
2023/09/13 09:10:11;;;;;;;0.30;0.30;;;28.70;56.30;;;29.06;42.09;94800.69;5076218;28;20198;-21
2023/09/13 09:12:47;;;;;;;0.30;0.30;;;28.70;56.30;;;29.06;41.32;94797.97;5075368;28;20296;-22
2023/09/13 09:15:17;;;;;;;0.20;0.20;;;28.70;56.20;;;29.08;42.16;94795.75;5059460;28;20263;-33
2023/09/13 09:17:49;;;;;;;0.38;0.38;;;28.70;56.20;;;29.11;41.67;94796.22;5075014;28;20332;-23
2023/09/13 09:20:18;;;;;;;0.28;0.28;;;28.70;56.20;;;29.12;41.88;94798.63;5076113;28;20241;-22
2023/09/13 09:22:45;;;;;;;0.20;0.20;;;28.80;56.30;;;29.13;42.06;94794.81;5075312;28;20194;-22
2023/09/13 09:25:13;;;;;;;0.30;0.30;;;28.70;56.20;;;29.15;41.46;94794.50;5076245;28;20194;-23
2023/09/13 09:27:41;;;;;;;0.20;0.20;;;28.70;56.20;;;29.17;41.87;94795.75;5075809;28;20186;-23
2023/09/13 09:30:14;;;;;;;0.20;0.20;;;28.80;56.10;;;29.20;41.52;94794.38;5076309;28;20262;-21
2023/09/13 09:32:44;;;;;;;0.30;0.30;;;28.80;56.20;;;29.19;41.59;94795.47;5074760;28;20200;-23
2023/09/13 09:35:14;;;;;;;0.20;0.20;;;28.80;56.10;;;29.24;41.96;94812.31;5075584;28;20688;-22
2023/09/13 09:37:42;;;;;;;0.30;0.30;;;28.80;56.10;;;29.24;42.09;94803.41;5076149;28;20252;-22
2023/09/13 09:40:13;;;;;;;0.30;0.30;;;28.80;56.20;;;29.26;41.87;94803.09;5075811;28;20194;-22
2023/09/13 09:42:40;;;;;;;0.30;0.30;;;28.80;56.00;;;29.29;41.97;94807.88;5075697;28;20236;-22
2023/09/13 09:45:08;;;;;;;0.30;0.30;;;28.90;56.10;;;29.30;42.05;94807.59;5075689;28;20228;-22
2023/09/13 09:47:41;;;;;;;0.30;0.30;;;28.90;56.10;;;29.32;41.36;94810.78;5075963;28;20277;-22
2023/09/13 09:50:13;;;;;;;0.20;0.20;;;28.90;56.10;;;29.35;41.49;94817.47;5075127;28;20197;-22
2023/09/13 09:52:40;;;;;;;0.30;0.30;;;28.90;56.00;;;29.37;41.69;94810.63;5075605;28;20278;-22
2023/09/13 09:55:13;;;;;;;0.30;0.30;;;28.90;56.00;;;29.38;41.40;94812.22;5074454;28;20618;-22
2023/09/13 09:57:46;;;;;;;0.30;0.30;;;29.00;56.20;;;29.42;41.93;94812.41;5074731;28;20209;-22
2023/09/13 10:00:15;;;;;;;0.30;0.30;;;29.00;56.10;;;29.43;41.25;94814.00;5075308;28;20176;-22
2023/09/13 10:02:46;;;;;;;0.20;0.20;;;29.00;56.10;;;29.45;41.29;94811.75;5075076;28;20244;-21
2023/09/13 10:05:18;;;;;;;0.30;0.30;;;29.00;56.00;;;29.47;41.76;94824.97;5074563;28;20202;-22
2023/09/13 10:07:54;;;;;;;0.32;0.32;;;29.00;56.00;;;29.47;41.50;94816.88;5075469;28;20192;-22
2023/09/13 10:10:30;;;;;;;0.22;0.22;;;29.10;56.00;;;29.48;41.10;94811.13;5075169;28;20185;-21
2023/09/13 10:12:57;;;;;;;0.30;0.30;;;29.00;55.80;;;29.51;41.37;94813.19;5075399;28;20262;-21
2023/09/13 10:15:26;;;;;;;0.30;0.30;;;29.10;55.90;;;29.51;41.11;94805.09;5075297;28;20638;-22
2023/09/13 10:17:55;;;;;;;0.20;0.20;;;29.10;56.00;;;29.55;41.19;94814.19;5075032;28;20201;-22
2023/09/13 10:20:24;;;;;;;0.30;0.30;;;29.10;55.90;;;29.56;41.62;94806.84;5074973;28;20198;-21
2023/09/13 10:22:56;;;;;;;0.25;0.25;;;29.10;55.80;;;29.60;41.15;94810.53;5074937;28;20583;-22
2023/09/13 10:25:29;;;;;;;0.30;0.30;;;29.10;55.70;;;29.59;41.67;94808.94;5074956;28;20260;-22
2023/09/13 10:27:59;;;;;;;0.30;0.30;;;29.10;55.60;;;29.62;41.29;94802.88;5075489;28;20254;-22
2023/09/13 10:30:28;;;;;;;0.20;0.20;;;29.20;55.70;;;29.65;41.47;94799.56;5075658;28;20671;-22